Terminal Aerodrome Forecast
Issued by NWS Grand Rapids, MI

Home | Current Version | Previous Version | Text Only | Print | Product List | Glossary On
Versions: 1 2 3 4 5 6 7 8 9 10 11 12 13 14 15 16 17 18
433
FTUS43 KGRR 291140
TAFGRR
TAF
KGRR 291140Z 2912/3012 19008KT P6SM SKC
     FM291400 21011G17KT P6SM SCT070
     FM291800 24015G21KT P6SM VCTS BKN070CB
     FM292300 25007KT P6SM SKC=

USA.gov is the U.S. government's official web portal to all federal, state and local government web resources and services.